Terminal Aerodrome Forecast
Issued by NWS

Home | Current Version | Previous Version | Graphics & Text | Print | Product List | Glossary On
Versions: 1 2 3 4 5 6 7 8 9 10 11 12 13 14 15 16 17 18 19
737
FTUS43 KOAX 212007 AAB
TAFCDR
TAF AMD
KCDR 212007Z 2120/2218 20009KT P6SM OVC070
      TEMPO 2120/2124 BKN021
     FM220000 16011KT P6SM BKN060
     FM220700 22006KT P6SM SCT060=

USA.gov is the U.S. government's official web portal to all federal, state and local government web resources and services.